LFMO

Orange-Caritat (BA 115) Air Base Airport

Orange/Caritat, France
TAF LFMO 160200Z 1603/1703 34005KT CAVOK BECMG 1620/1623 4000 BR PROB40 TEMPO 1700/1703 0800 BCFG
Issued Valid From Valid To
Oct-16 @ 02:00 UTC
(4 hours ago)
Oct-16 @ 03:00 UTC
(3 hours ago)
Oct-17 @ 03:00 UTC
(in 21 hours)
Oct-16 @ 03:00 to Oct-16 @ 20:00
TAF LFMO 160200Z 1603/1703 34005KT CAVOK
Wind Visibility Clouds Conditions
340° at 5 knots 10,000+ meters
  • No significant clouds
Becoming Oct-16 @ 20:00 to Oct-17 @ 03:00
BECMG 1620/1623 4000 BR
Wind Visibility Clouds Conditions
340° at 5 knots 4,007 meters
  • No significant clouds
  • Mist
Temporary  (Probability 40%) Oct-17 @ 00:00 to Oct-17 @ 03:00
PROB40 TEMPO 1700/1703 0800 BCFG
Visibility Conditions
805 meters
  • Patches of
  • Fog
TAF LFMO 160200Z 1603/1703 34005KT CAVOK BECMG 1620/1623 4000 BR PROB40 TEMPO 1700/1703 0800 BCFG
Issued Oct-16 @ 02:00 UTC
(4 hours ago)
Valid From Oct-16 @ 03:00 UTC
(3 hours ago)
Valid To Oct-17 @ 03:00 UTC
(in 21 hours)
Oct-16 @ 03:00 - Oct-16 @ 20:00
Wind Visibility
340° at 5 knots 10,000+ meters
Clouds
  • No significant clouds
Conditions
Becoming Oct-16 @ 20:00 - Oct-17 @ 03:00
Wind Visibility
340° at 5 knots 4,007 meters
Clouds
  • No significant clouds
Conditions
  • Mist
Probability 40% Temporary Oct-17 @ 00:00 - Oct-17 @ 03:00
Conditions
  • Patches of
  • Fog